Flight Track Log - Related Links

Times and Time Zones

All times are in EDT time to prevent confusion due to time zone crossing. See the SKW5634 flight status page for this flight to view local times or setup timezone preferences in your user account.

Time Position Orientation Groundspeed Altitude Reporting Facility
EDT Latitude Longitude Course Direction KTS MPH feet Rate Location/Type
Fri 08:41:08 PM 37.6333 -122.3667 50° Northeast 163 188 1,000  Level Northern Cal TRACON
Fri 08:42:03 PM 37.6667 -122.3167 47° Northeast 237 273 3,000 2,557 Climbing Northern Cal TRACON
Fri 08:43:03 PM 37.7167 -122.2500 53° Northeast 258 297 5,900 2,800 Climbing Northern Cal TRACON
Fri 08:44:03 PM 37.7667 -122.1667 62° Northeast 282 325 8,600 2,258 Climbing Northern Cal TRACON
Fri 08:46:01 PM 37.8378 -121.9964 59° Northeast 314 361 12,600 1,955 Climbing Oakland Center
Fri 08:47:01 PM 37.8822 -121.9025 63° Northeast 314 361 14,400 1,800 Climbing Oakland Center
Fri 08:48:01 PM 37.9228 -121.8003 59° Northeast 314 361 16,200 1,800 Climbing Oakland Center
Fri 08:49:01 PM 37.9714 -121.6981 60° Northeast 319 367 18,000 1,650 Climbing Oakland Center
Fri 08:50:01 PM 38.0200 -121.5903 61° Northeast 330 380 19,500 1,450 Climbing Oakland Center
Fri 08:51:01 PM 38.0683 -121.4800 61° Northeast 340 391 20,900 1,350 Climbing Oakland Center
Fri 08:52:01 PM 38.1167 -121.3694 59° Northeast 346 398 22,200 1,050 Climbing Oakland Center
Fri 08:53:01 PM 38.1692 -121.2561 61° Northeast 353 406 23,000 400 Climbing Oakland Center
Fri 08:54:01 PM 38.2236 -121.1294 60° Northeast 373 429 23,000  Level Oakland Center
Fri 08:55:01 PM 38.2844 -120.9972 61° Northeast 404 465 23,000  Level Oakland Center
Fri 08:56:01 PM 38.3447 -120.8597 61° Northeast 424 488 23,000  Level Oakland Center
Fri 08:57:01 PM 38.4050 -120.7217 60° Northeast 442 509 23,000  Level Oakland Center
Fri 08:58:02 PM 38.4650 -120.5861 60° Northeast 437 503 23,000  Level Oakland Center
Fri 08:59:01 PM 38.5231 -120.4558 61° Northeast 437 503 23,000  Level Oakland Center
Fri 09:00:01 PM 38.5808 -120.3225 61° Northeast 431 496 23,000 -750 Level Oakland Center
Fri 09:01:01 PM 38.6364 -120.1944 59° Northeast 425 489 21,500 -1,650 Descending Oakland Center
Fri 09:02:01 PM 38.6897 -120.0794 62° Northeast 399 459 19,700 -1,700 Descending Oakland Center
Fri 09:03:01 PM 38.7347 -119.9697 61° Northeast 368 423 18,100 -1,500 Descending Oakland Center
Fri 09:04:01 PM 38.7797 -119.8653 52° Northeast 342 394 16,700 -1,550 Descending Oakland Center
Fri 09:05:01 PM 38.8331 -119.7764 North 298 343 15,000 -1,600 Descending Oakland Center
Fri 09:06:01 PM 38.9225 -119.7697 359° North 268 308 13,500 -1,537 Descending Oakland Center
Fri 09:07:02 PM 39.0039 -119.7711 North 279 321 11,900 -1,550 Descending Oakland Center
Fri 09:08:01 PM 39.0811 -119.7697 North 279 321 10,400 -1,412 Descending Oakland Center
Fri 09:09:01 PM 39.1542 -119.7683 North 268 308 9,100 -650 Descending Oakland Center
Fri 09:10:01 PM 39.2353 -119.7669 North 273 314 9,100  Level Oakland Center

Login

Don't have an account? Register now (free) for customized features, flight alerts, and more!